Time;durP1;ratioP1;P1;durP2;ratioP2;P2;SDS_P1;SDS_P2;PMS_P1;PMS_P2;Temp;Humidity;BMP_temperature;BMP_pressure;BME280_temperature;BME280_humidity;BME280_pressure;Samples;Min_cycle;Max_cycle;Signal;HPM_P1;HPM_P2
2023/05/20 00:00:36;;;;;;;1.90;1.80;;;20.10;42.30;;;;;;5015876;28;20591;-77
2023/05/20 00:03:01;;;;;;;1.70;1.57;;;20.10;42.30;;;;;;5000488;28;20223;-77
2023/05/20 00:05:27;;;;;;;1.50;1.40;;;20.10;42.30;;;;;;5014210;28;20257;-77
2023/05/20 00:07:53;;;;;;;1.70;1.60;;;20.10;42.30;;;;;;5013466;28;20234;-77
2023/05/20 00:10:18;;;;;;;1.70;1.60;;;20.10;42.30;;;;;;5015797;28;20231;-76
2023/05/20 00:12:44;;;;;;;1.73;1.63;;;20.10;42.30;;;;;;5013889;28;20710;-77
2023/05/20 00:15:12;;;;;;;2.10;1.63;;;20.10;42.30;;;;;;5017615;28;20590;-77
2023/05/20 00:17:38;;;;;;;1.80;1.70;;;20.10;42.30;;;;;;5003230;28;20219;-77
2023/05/20 00:20:05;;;;;;;2.17;2.00;;;20.10;42.30;;;;;;5018686;28;20804;-76
2023/05/20 00:22:30;;;;;;;1.90;1.80;;;20.10;42.30;;;;;;5000053;28;20783;-77
2023/05/20 00:24:56;;;;;;;2.30;1.60;;;20.10;42.30;;;;;;5002135;28;21194;-77
2023/05/20 00:27:22;;;;;;;1.60;1.50;;;20.10;42.40;;;;;;5000341;28;20305;-76
2023/05/20 00:29:47;;;;;;;2.27;1.60;;;20.10;42.40;;;;;;5018997;28;20276;-77
2023/05/20 00:32:13;;;;;;;1.57;1.47;;;20.10;42.40;;;;;;4994987;28;20710;-75
2023/05/20 00:34:38;;;;;;;2.00;1.90;;;20.10;42.40;;;;;;5001144;28;20293;-76
2023/05/20 00:37:04;;;;;;;1.60;1.50;;;20.10;42.40;;;;;;5000320;28;20279;-76
2023/05/20 00:39:30;;;;;;;2.03;1.93;;;20.10;42.50;;;;;;4994170;28;20243;-77
2023/05/20 00:41:59;;;;;;;2.10;1.50;;;20.10;42.40;;;;;;5000807;28;20951;-77
2023/05/20 00:44:25;;;;;;;1.80;1.70;;;20.10;42.50;;;;;;5001598;28;20426;-76
2023/05/20 00:46:51;;;;;;;1.70;1.60;;;20.10;42.50;;;;;;5006263;28;20436;-74
2023/05/20 00:49:18;;;;;;;1.80;1.70;;;20.10;42.50;;;;;;4998843;28;20423;-77
2023/05/20 00:51:43;;;;;;;1.70;1.50;;;20.10;42.50;;;;;;5001362;28;20515;-77
2023/05/20 00:54:09;;;;;;;1.43;1.33;;;20.10;42.50;;;;;;5008893;28;21060;-76
2023/05/20 00:56:35;;;;;;;2.07;1.60;;;20.10;42.50;;;;;;5015846;28;20222;-77
2023/05/20 00:59:01;;;;;;;1.70;1.60;;;20.10;42.50;;;;;;4997272;28;20593;-77
2023/05/20 01:01:27;;;;;;;1.63;1.53;;;20.10;42.50;;;;;;5003398;28;20345;-77
2023/05/20 01:03:52;;;;;;;1.80;1.70;;;20.10;42.50;;;;;;4997557;28;20220;-77
2023/05/20 01:06:18;;;;;;;1.53;1.43;;;20.10;42.50;;;;;;4992431;28;20223;-77
2023/05/20 01:08:43;;;;;;;1.63;1.53;;;20.10;42.50;;;;;;5015345;28;20219;-77
2023/05/20 01:11:28;;;;;;;1.57;1.47;;;20.10;42.50;;;;;;4997374;28;20236;-77
2023/05/20 01:14:05;;;;;;;2.10;1.60;;;20.10;42.50;;;;;;4996188;28;20610;-77
2023/05/20 01:16:32;;;;;;;2.13;1.70;;;20.10;42.50;;;;;;4996271;28;20487;-77
2023/05/20 01:19:01;;;;;;;1.70;1.60;;;20.10;42.60;;;;;;4997990;28;22389;-77
2023/05/20 01:21:28;;;;;;;1.53;1.43;;;20.10;42.60;;;;;;4997499;28;20453;-77
2023/05/20 01:23:53;;;;;;;1.47;1.37;;;20.10;42.60;;;;;;4997837;28;21519;-77
2023/05/20 01:26:20;;;;;;;2.20;1.60;;;20.10;42.60;;;;;;5018370;28;20424;-77
2023/05/20 01:28:46;;;;;;;1.60;1.50;;;20.10;42.60;;;;;;4998885;28;20255;-77
2023/05/20 01:31:18;;;;;;;1.80;1.70;;;20.10;42.60;;;;;;4995867;28;21274;-77
2023/05/20 01:33:45;;;;;;;1.37;1.27;;;20.10;42.60;;;;;;5006473;28;20311;-77
2023/05/20 01:36:11;;;;;;;1.60;1.50;;;20.10;42.60;;;;;;4991334;28;20467;-77
2023/05/20 01:38:38;;;;;;;2.17;2.07;;;20.10;42.60;;;;;;4998002;28;20484;-77
2023/05/20 01:41:05;;;;;;;1.53;1.43;;;20.10;42.60;;;;;;4994892;28;20825;-77
2023/05/20 01:43:31;;;;;;;2.00;1.90;;;20.10;42.60;;;;;;4999847;28;20433;-76
2023/05/20 01:45:56;;;;;;;1.50;1.40;;;20.10;42.60;;;;;;5006121;28;20469;-77
2023/05/20 01:48:22;;;;;;;1.83;1.73;;;20.10;42.60;;;;;;5001759;28;20234;-75
2023/05/20 01:50:48;;;;;;;1.60;1.50;;;20.10;42.60;;;;;;4995881;28;20215;-77
2023/05/20 01:53:13;;;;;;;1.70;1.60;;;20.10;42.70;;;;;;4994639;28;20326;-77
2023/05/20 01:55:39;;;;;;;1.60;1.50;;;20.10;42.70;;;;;;4989000;28;20686;-77
2023/05/20 01:58:04;;;;;;;1.60;1.50;;;20.10;42.70;;;;;;5006626;28;20222;-77
2023/05/20 02:00:33;;;;;;;2.53;1.80;;;20.10;42.60;;;;;;5008898;28;20269;-77
2023/05/20 02:02:58;;;;;;;1.70;1.60;;;20.10;42.60;;;;;;5005181;28;20710;-75
2023/05/20 02:05:24;;;;;;;1.50;1.40;;;20.10;42.70;;;;;;4992125;28;20435;-76
2023/05/20 02:07:50;;;;;;;1.50;1.40;;;20.10;42.70;;;;;;4995078;28;20219;-76
2023/05/20 02:10:15;;;;;;;1.70;1.60;;;20.10;42.70;;;;;;5003401;28;20223;-76
2023/05/20 02:12:41;;;;;;;1.60;1.50;;;20.10;42.70;;;;;;5003561;28;20335;-77
2023/05/20 02:15:07;;;;;;;1.43;1.33;;;20.10;42.70;;;;;;4994723;28;20226;-76
2023/05/20 02:17:33;;;;;;;1.40;1.30;;;20.10;42.70;;;;;;4986305;28;20440;-77
2023/05/20 02:19:58;;;;;;;1.80;1.70;;;20.10;42.70;;;;;;4987295;28;20284;-77
2023/05/20 02:22:24;;;;;;;1.70;1.60;;;20.10;42.70;;;;;;5004689;28;20302;-76
2023/05/20 02:24:49;;;;;;;1.30;1.20;;;20.10;42.70;;;;;;4985701;28;20221;-77
2023/05/20 02:27:15;;;;;;;1.67;1.57;;;20.00;42.60;;;;;;5005998;28;20234;-77
2023/05/20 02:29:43;;;;;;;1.70;1.60;;;20.10;42.70;;;;;;5003240;28;20264;-77
2023/05/20 02:32:08;;;;;;;1.30;1.20;;;20.10;42.70;;;;;;5006352;28;20278;-76
2023/05/20 02:34:34;;;;;;;1.53;1.43;;;20.10;42.70;;;;;;4992850;28;20970;-77
2023/05/20 02:37:00;;;;;;;1.53;1.43;;;20.10;43.50;;;;;;4997125;28;20230;-77
2023/05/20 02:39:27;;;;;;;1.80;1.70;;;20.10;42.70;;;;;;5012004;28;20315;-77
2023/05/20 02:41:52;;;;;;;2.37;1.70;;;20.10;42.80;;;;;;5008819;28;20589;-77
2023/05/20 02:44:18;;;;;;;1.40;1.30;;;20.10;42.90;;;;;;5012706;28;20444;-77
2023/05/20 02:46:43;;;;;;;1.80;1.70;;;20.10;42.80;;;;;;5004861;28;20281;-76
2023/05/20 02:49:09;;;;;;;1.40;1.30;;;20.10;42.70;;;;;;5013283;28;20215;-77
2023/05/20 02:51:35;;;;;;;1.70;1.60;;;20.10;42.70;;;;;;5013186;28;20219;-77
2023/05/20 02:54:01;;;;;;;1.63;1.53;;;20.10;42.80;;;;;;4996525;28;20718;-75
2023/05/20 02:56:27;;;;;;;1.60;1.50;;;20.10;42.70;;;;;;4996357;28;20460;-77
2023/05/20 02:58:53;;;;;;;1.60;1.50;;;20.10;42.70;;;;;;4997276;28;20216;-77
2023/05/20 03:01:18;;;;;;;1.60;1.50;;;20.00;42.60;;;;;;5013734;28;20465;-77
2023/05/20 03:03:44;;;;;;;1.40;1.30;;;20.10;42.70;;;;;;5005719;28;20310;-76
2023/05/20 03:06:09;;;;;;;1.37;1.27;;;20.10;42.80;;;;;;4994588;28;20222;-76
2023/05/20 03:08:35;;;;;;;1.37;1.27;;;20.00;42.60;;;;;;4990065;28;20270;-77
2023/05/20 03:11:01;;;;;;;1.43;1.33;;;20.00;42.70;;;;;;5009653;28;20239;-77
2023/05/20 03:13:26;;;;;;;2.20;1.40;;;20.10;42.70;;;;;;4991521;28;20700;-75
2023/05/20 03:15:52;;;;;;;1.43;1.33;;;20.10;42.80;;;;;;4999379;28;20223;-76
2023/05/20 03:18:17;;;;;;;1.63;1.53;;;20.10;42.80;;;;;;5009661;28;21022;-77
2023/05/20 03:20:43;;;;;;;1.53;1.43;;;20.10;42.80;;;;;;4976828;28;20226;-77
2023/05/20 03:23:09;;;;;;;1.60;1.50;;;20.10;43.50;;;;;;4990321;28;20261;-76
2023/05/20 03:25:36;;;;;;;1.60;1.50;;;20.10;42.80;;;;;;4980430;28;20223;-77
2023/05/20 03:28:01;;;;;;;1.60;1.50;;;20.10;42.80;;;;;;4990135;28;20470;-76
2023/05/20 03:30:27;;;;;;;1.30;1.20;;;20.10;42.70;;;;;;4997444;28;21181;-77
2023/05/20 03:32:56;;;;;;;1.47;1.37;;;20.10;42.70;;;;;;4994377;28;20678;-76
2023/05/20 03:35:22;;;;;;;1.80;1.60;;;20.10;42.80;;;;;;5014500;28;20596;-76
2023/05/20 03:37:47;;;;;;;1.70;1.60;;;20.10;42.80;;;;;;5011113;28;20435;-77
2023/05/20 03:40:13;;;;;;;1.43;1.33;;;20.10;42.80;;;;;;5013330;28;20330;-77
2023/05/20 03:42:38;;;;;;;1.63;1.40;;;20.00;42.70;;;;;;5000601;28;20233;-76
2023/05/20 03:45:05;;;;;;;1.60;1.50;;;20.00;42.80;;;;;;5015845;28;20238;-77
2023/05/20 03:47:31;;;;;;;1.67;1.57;;;20.00;42.70;;;;;;5014857;28;20227;-77
2023/05/20 03:49:57;;;;;;;1.50;1.40;;;20.10;42.80;;;;;;4994909;28;20498;-77
2023/05/20 03:52:22;;;;;;;2.10;1.60;;;20.00;42.70;;;;;;4994923;28;20220;-76
2023/05/20 03:54:48;;;;;;;1.50;1.40;;;20.00;42.70;;;;;;5003560;28;20349;-75
2023/05/20 03:57:13;;;;;;;1.57;1.47;;;20.00;42.70;;;;;;5015748;28;20231;-77
2023/05/20 03:59:39;;;;;;;1.47;1.37;;;20.00;42.80;;;;;;5013825;28;20564;-77
2023/05/20 04:02:05;;;;;;;1.30;1.20;;;20.00;42.70;;;;;;4999105;28;20697;-77
2023/05/20 04:04:31;;;;;;;1.70;1.60;;;20.10;42.80;;;;;;4997775;28;20223;-77
2023/05/20 04:06:59;;;;;;;1.50;1.40;;;20.00;42.70;;;;;;4997757;28;20601;-77
2023/05/20 04:09:25;;;;;;;1.60;1.50;;;20.00;42.70;;;;;;4997775;28;20218;-77
2023/05/20 04:11:50;;;;;;;1.77;1.40;;;20.00;42.70;;;;;;5014477;28;20836;-75
2023/05/20 04:14:16;;;;;;;1.50;1.40;;;20.00;42.70;;;;;;5004850;28;20431;-76
2023/05/20 04:16:42;;;;;;;1.40;1.30;;;20.00;42.70;;;;;;5003843;28;20229;-77
2023/05/20 04:19:08;;;;;;;1.43;1.33;;;20.00;42.70;;;;;;4981358;28;20678;-77
2023/05/20 04:21:33;;;;;;;1.53;1.43;;;20.00;42.70;;;;;;4999606;28;20215;-78
2023/05/20 04:23:59;;;;;;;1.50;1.40;;;20.00;42.70;;;;;;5003753;28;20573;-75
2023/05/20 04:26:24;;;;;;;1.33;1.23;;;20.00;42.70;;;;;;4996266;28;20224;-77
2023/05/20 04:28:50;;;;;;;1.67;1.57;;;20.00;42.70;;;;;;5001458;28;20743;-76
2023/05/20 04:31:16;;;;;;;1.30;1.20;;;20.00;42.70;;;;;;5014591;28;20226;-77
2023/05/20 04:33:43;;;;;;;1.60;1.50;;;20.00;42.70;;;;;;5012462;28;20230;-77
2023/05/20 04:36:10;;;;;;;1.50;1.40;;;20.00;42.70;;;;;;4990730;28;20219;-77
2023/05/20 04:38:36;;;;;;;1.97;1.60;;;20.00;42.70;;;;;;4995350;28;20540;-77
2023/05/20 04:41:02;;;;;;;1.63;1.53;;;20.00;42.70;;;;;;5000182;28;20506;-77
2023/05/20 04:43:29;;;;;;;1.67;1.53;;;20.00;42.70;;;;;;5000459;28;20471;-77
2023/05/20 04:45:58;;;;;;;1.30;1.20;;;20.00;42.70;;;;;;5012511;28;20427;-77
2023/05/20 04:48:24;;;;;;;1.60;1.50;;;20.10;42.80;;;;;;4992189;28;20442;-77
2023/05/20 04:50:53;;;;;;;1.53;1.43;;;20.10;42.80;;;;;;4993278;28;20941;-77
2023/05/20 04:53:20;;;;;;;1.60;1.50;;;20.10;42.80;;;;;;5009094;28;20932;-77
2023/05/20 04:55:47;;;;;;;1.50;1.40;;;20.10;42.80;;;;;;4999850;28;20961;-77
2023/05/20 04:58:16;;;;;;;1.40;1.30;;;20.00;42.60;;;;;;4991150;28;20510;-75
2023/05/20 05:00:45;;;;;;;1.67;1.57;;;20.10;42.70;;;;;;5005371;28;20431;-77
2023/05/20 05:03:11;;;;;;;1.63;1.53;;;20.10;42.70;;;;;;5002270;28;21084;-76
2023/05/20 05:05:38;;;;;;;1.50;1.40;;;20.10;42.70;;;;;;4988061;28;21124;-75
2023/05/20 05:08:08;;;;;;;3.60;1.30;;;20.10;42.70;;;;;;4992454;28;20509;-75
2023/05/20 05:10:34;;;;;;;1.40;1.30;;;20.10;42.70;;;;;;5012756;28;21296;-77
2023/05/20 05:13:00;;;;;;;1.47;1.37;;;20.10;42.70;;;;;;5012924;28;20471;-77
2023/05/20 05:15:26;;;;;;;1.50;1.40;;;20.10;42.60;;;;;;4994859;28;21081;-77
2023/05/20 05:17:51;;;;;;;1.50;1.40;;;20.00;42.60;;;;;;4997523;28;21434;-76
2023/05/20 05:20:17;;;;;;;1.70;1.60;;;20.10;42.70;;;;;;5007621;28;20458;-77
2023/05/20 05:22:43;;;;;;;1.43;1.33;;;20.10;42.70;;;;;;5003659;28;20281;-77
2023/05/20 05:25:09;;;;;;;1.50;1.40;;;20.10;42.60;;;;;;5000614;28;20303;-76
2023/05/20 05:27:35;;;;;;;1.50;1.40;;;20.10;42.60;;;;;;4986206;28;20432;-76
2023/05/20 05:30:02;;;;;;;2.00;1.43;;;20.10;42.60;;;;;;5003694;28;21486;-77
2023/05/20 05:32:27;;;;;;;1.60;1.50;;;20.10;42.60;;;;;;5003958;28;20294;-76
2023/05/20 05:34:53;;;;;;;1.63;1.53;;;20.10;42.70;;;;;;4998923;28;20468;-75
2023/05/20 05:37:19;;;;;;;1.40;1.30;;;20.10;42.60;;;;;;5010628;28;20224;-76
2023/05/20 05:39:44;;;;;;;1.90;1.80;;;20.10;42.60;;;;;;4993920;28;20234;-76
2023/05/20 05:42:10;;;;;;;1.60;1.50;;;20.10;42.60;;;;;;4995913;28;20222;-75
2023/05/20 05:44:35;;;;;;;1.53;1.40;;;20.10;42.60;;;;;;5001086;28;20214;-77
2023/05/20 05:47:01;;;;;;;1.40;1.30;;;20.10;42.60;;;;;;4999544;28;20253;-78
2023/05/20 05:49:26;;;;;;;1.40;1.30;;;20.10;42.60;;;;;;4993918;28;20285;-77
2023/05/20 05:51:52;;;;;;;1.40;1.30;;;20.10;42.60;;;;;;4997019;28;20670;-77
2023/05/20 05:54:19;;;;;;;1.33;1.23;;;20.10;42.50;;;;;;5008379;28;20798;-76
2023/05/20 05:56:45;;;;;;;1.50;1.40;;;20.10;42.60;;;;;;4997783;28;20360;-76
2023/05/20 05:59:11;;;;;;;1.67;1.57;;;20.10;42.50;;;;;;4986182;28;20470;-77
2023/05/20 06:01:36;;;;;;;1.60;1.50;;;20.10;42.50;;;;;;5014609;28;20299;-77
2023/05/20 06:04:02;;;;;;;1.50;1.40;;;20.10;42.60;;;;;;4999114;28;20222;-77
2023/05/20 06:06:27;;;;;;;2.53;1.60;;;20.10;42.50;;;;;;5010664;28;20235;-77
2023/05/20 06:08:54;;;;;;;4.83;1.77;;;20.10;42.50;;;;;;5010560;28;20281;-77
2023/05/20 06:11:20;;;;;;;1.67;1.57;;;20.10;43.20;;;;;;5016814;28;20235;-77
2023/05/20 06:13:46;;;;;;;2.13;1.67;;;20.10;42.60;;;;;;5003468;28;20948;-80
2023/05/20 06:16:11;;;;;;;5.37;2.03;;;20.10;42.50;;;;;;5002733;28;20466;-79
2023/05/20 06:18:37;;;;;;;3.60;2.00;;;20.10;42.50;;;;;;5009465;28;20226;-78
2023/05/20 06:21:03;;;;;;;2.60;1.57;;;20.10;42.50;;;;;;4999828;28;20227;-78
2023/05/20 06:23:28;;;;;;;3.30;1.60;;;20.10;42.50;;;;;;5013767;28;20672;-78
2023/05/20 06:25:58;;;;;;;3.40;1.70;;;20.10;42.50;;;;;;5007522;28;20749;-77
2023/05/20 06:28:24;;;;;;;1.80;1.70;;;20.10;42.50;;;;;;5004878;28;20654;-78
2023/05/20 06:30:49;;;;;;;1.90;1.50;;;20.20;42.60;;;;;;4986768;28;20516;-79
2023/05/20 06:33:16;;;;;;;1.63;1.40;;;20.10;42.50;;;;;;4998515;28;20240;-78
2023/05/20 06:35:42;;;;;;;1.60;1.50;;;20.10;42.50;;;;;;5006481;28;21076;-78
2023/05/20 06:38:07;;;;;;;1.50;1.40;;;20.10;42.50;;;;;;5011517;28;20453;-77
2023/05/20 06:40:33;;;;;;;8.10;1.50;;;20.20;42.60;;;;;;5013574;28;20227;-81
2023/05/20 06:42:58;;;;;;;3.23;1.60;;;20.20;42.60;;;;;;5004056;28;20226;-80
2023/05/20 06:45:24;;;;;;;1.60;1.50;;;20.10;42.50;;;;;;5004423;28;20227;-76
2023/05/20 06:47:52;;;;;;;4.70;1.50;;;20.20;42.60;;;;;;5003424;28;20228;-81
2023/05/20 06:50:17;;;;;;;2.57;1.70;;;20.20;42.60;;;;;;5002987;28;20314;-78
2023/05/20 06:52:43;;;;;;;3.00;1.70;;;20.20;42.60;;;;;;4978781;28;20832;-78
2023/05/20 06:55:09;;;;;;;1.60;1.50;;;20.20;42.70;;;;;;5000941;28;20273;-74
2023/05/20 06:57:34;;;;;;;1.50;1.40;;;20.20;42.60;;;;;;5004341;28;20223;-79
2023/05/20 07:00:00;;;;;;;1.63;1.53;;;20.20;42.60;;;;;;4981518;28;20488;-74
2023/05/20 07:02:26;;;;;;;1.70;1.60;;;20.20;42.60;;;;;;4989870;28;20223;-74
2023/05/20 07:04:51;;;;;;;2.23;1.60;;;20.20;42.70;;;;;;5000546;28;20231;-73
2023/05/20 07:07:17;;;;;;;1.73;1.50;;;20.20;42.60;;;;;;5003099;28;20305;-76
2023/05/20 07:09:42;;;;;;;1.70;1.43;;;20.20;42.60;;;;;;5000870;28;20305;-75
2023/05/20 07:12:08;;;;;;;2.03;1.60;;;20.20;42.60;;;;;;5004986;28;20313;-76
2023/05/20 07:14:33;;;;;;;1.60;1.50;;;20.20;42.60;;;;;;5009884;28;20215;-76
2023/05/20 07:16:59;;;;;;;1.97;1.77;;;20.20;42.70;;;;;;5001084;28;20223;-75
2023/05/20 07:19:24;;;;;;;1.87;1.50;;;20.20;42.60;;;;;;5001797;28;20634;-75
2023/05/20 07:21:50;;;;;;;1.53;1.43;;;20.20;42.60;;;;;;5000911;28;20249;-75
2023/05/20 07:24:16;;;;;;;1.57;1.47;;;20.20;42.70;;;;;;5012847;28;20250;-76
2023/05/20 07:26:42;;;;;;;2.70;1.40;;;20.20;42.60;;;;;;5009679;28;20253;-76
2023/05/20 07:29:09;;;;;;;1.60;1.50;;;20.20;42.60;;;;;;4991329;28;20457;-77
2023/05/20 07:31:35;;;;;;;1.43;1.33;;;20.20;42.60;;;;;;5020726;28;20225;-77
2023/05/20 07:34:00;;;;;;;1.50;1.40;;;20.20;42.60;;;;;;5016498;28;20451;-74
2023/05/20 07:36:27;;;;;;;1.60;1.50;;;20.20;43.30;;;;;;5004879;28;20223;-79
2023/05/20 07:38:53;;;;;;;2.30;1.40;;;20.20;42.60;;;;;;5018964;28;20595;-76
2023/05/20 07:41:18;;;;;;;1.53;1.43;;;20.20;42.60;;;;;;5008472;28;20490;-76
2023/05/20 07:43:44;;;;;;;4.30;1.90;;;20.20;42.60;;;;;;4992675;28;20251;-75
2023/05/20 07:46:10;;;;;;;2.70;1.67;;;20.20;42.60;;;;;;5008961;28;20448;-73
2023/05/20 07:48:35;;;;;;;1.83;1.37;;;20.20;42.60;;;;;;4984149;28;20450;-74
2023/05/20 07:51:01;;;;;;;2.93;1.50;;;20.30;42.70;;;;;;4995982;28;20316;-73
2023/05/20 07:53:27;;;;;;;1.80;1.70;;;20.20;42.60;;;;;;4994317;28;20291;-73
2023/05/20 07:55:52;;;;;;;1.60;1.50;;;20.30;42.70;;;;;;5000676;28;20239;-75
2023/05/20 07:58:18;;;;;;;1.80;1.70;;;20.30;42.70;;;;;;5002576;28;20239;-76
2023/05/20 08:00:43;;;;;;;3.67;1.93;;;20.20;42.60;;;;;;5006905;28;20288;-76
2023/05/20 08:03:09;;;;;;;1.50;1.40;;;20.30;42.70;;;;;;5011084;28;20240;-74
2023/05/20 08:05:38;;;;;;;1.73;1.43;;;20.20;42.70;;;;;;5017179;28;20218;-74
2023/05/20 08:08:04;;;;;;;1.83;1.73;;;20.20;42.70;;;;;;5003153;28;20220;-74
2023/05/20 08:10:30;;;;;;;1.87;1.77;;;20.30;42.70;;;;;;5009721;28;20935;-74
2023/05/20 08:12:56;;;;;;;1.50;1.40;;;20.20;42.60;;;;;;4986988;28;20525;-74
2023/05/20 08:15:21;;;;;;;1.40;1.30;;;20.30;42.70;;;;;;5013730;28;20247;-75
2023/05/20 08:17:47;;;;;;;1.60;1.50;;;20.30;42.80;;;;;;5017063;28;20571;-75
2023/05/20 08:20:13;;;;;;;1.70;1.50;;;20.30;42.70;;;;;;4996666;28;20246;-74
2023/05/20 08:22:39;;;;;;;1.33;1.23;;;20.30;42.80;;;;;;5009888;28;20231;-74
2023/05/20 08:25:07;;;;;;;1.90;1.50;;;20.30;42.80;;;;;;5011704;28;21415;-75
2023/05/20 08:27:33;;;;;;;1.30;1.20;;;20.30;42.80;;;;;;4995245;28;20931;-75
2023/05/20 08:29:59;;;;;;;1.50;1.40;;;20.30;42.80;;;;;;5003926;28;20467;-74
2023/05/20 08:32:25;;;;;;;1.50;1.40;;;20.30;42.80;;;;;;5011090;28;20998;-74
2023/05/20 08:34:50;;;;;;;1.53;1.43;;;20.30;42.90;;;;;;5014319;28;20219;-74
2023/05/20 08:37:16;;;;;;;1.50;1.40;;;20.30;42.90;;;;;;4986204;28;20299;-74
2023/05/20 08:39:42;;;;;;;3.43;2.17;;;20.30;43.00;;;;;;5010024;28;20273;-74
2023/05/20 08:42:10;;;;;;;1.60;1.50;;;20.30;43.00;;;;;;5014590;28;20223;-74
2023/05/20 08:44:36;;;;;;;1.43;1.33;;;20.30;43.00;;;;;;5003928;28;20224;-73
2023/05/20 08:47:03;;;;;;;1.60;1.50;;;20.30;43.00;;;;;;5006676;28;20436;-73
2023/05/20 08:49:28;;;;;;;1.60;1.50;;;20.30;43.10;;;;;;5000621;28;20220;-72
2023/05/20 08:51:55;;;;;;;3.80;1.83;;;20.30;43.10;;;;;;4995008;28;20520;-72
2023/05/20 08:54:22;;;;;;;1.70;1.40;;;20.30;43.10;;;;;;5008874;28;20219;-73
2023/05/20 08:56:48;;;;;;;2.20;1.53;;;20.30;43.10;;;;;;5007312;28;20983;-72
2023/05/20 08:59:14;;;;;;;1.87;1.40;;;20.30;43.10;;;;;;5008014;28;20435;-73
2023/05/20 09:01:43;;;;;;;3.67;1.40;;;20.30;43.10;;;;;;5001384;28;20346;-72
2023/05/20 09:04:08;;;;;;;1.50;1.40;;;20.30;43.20;;;;;;4982950;28;20588;-73
2023/05/20 09:06:45;;;;;;;1.70;1.60;;;20.30;43.20;;;;;;5013598;28;20470;-73
2023/05/20 09:09:12;;;;;;;1.70;1.60;;;20.30;43.20;;;;;;5008029;28;20280;-73
2023/05/20 09:11:39;;;;;;;1.70;1.60;;;20.30;43.20;;;;;;5016357;28;20471;-72
2023/05/20 09:14:05;;;;;;;1.70;1.60;;;20.30;43.50;;;;;;4993907;28;20475;-72
2023/05/20 09:16:31;;;;;;;2.53;1.60;;;20.30;43.20;;;;;;5006931;28;20461;-72
2023/05/20 09:18:57;;;;;;;1.53;1.43;;;20.40;44.00;;;;;;5005707;28;20211;-71
2023/05/20 09:21:29;;;;;;;1.40;1.30;;;20.40;43.30;;;;;;4993123;28;20272;-71
2023/05/20 09:23:58;;;;;;;1.60;1.50;;;20.40;43.30;;;;;;4986483;28;20672;-72
2023/05/20 09:26:28;;;;;;;1.43;1.33;;;20.40;43.30;;;;;;5003436;28;20464;-71
2023/05/20 09:28:57;;;;;;;1.97;1.87;;;20.40;43.30;;;;;;5014421;28;20446;-72
2023/05/20 09:31:41;;;;;;;2.27;1.50;;;20.40;43.40;;;;;;5008404;28;20769;-72
2023/05/20 09:34:06;;;;;;;2.53;1.80;;;20.30;43.30;;;;;;4996553;28;21003;-72
2023/05/20 09:36:34;;;;;;;5.77;1.70;;;20.30;43.30;;;;;;5006911;28;20447;-73
2023/05/20 09:39:02;;;;;;;1.60;1.50;;;20.40;43.30;;;;;;4989978;28;20691;-73
2023/05/20 09:41:38;;;;;;;1.67;1.57;;;20.40;43.40;;;;;;5010692;28;20480;-72
2023/05/20 09:44:05;;;;;;;1.70;1.60;;;20.40;43.40;;;;;;5008544;28;20569;-73
2023/05/20 09:46:33;;;;;;;1.67;1.57;;;20.40;43.50;;;;;;5005845;28;21524;-73
2023/05/20 09:48:58;;;;;;;1.70;1.60;;;20.40;43.50;;;;;;4997865;28;20471;-74
2023/05/20 09:51:25;;;;;;;3.13;1.40;;;20.40;43.50;;;;;;5013015;28;20996;-73
2023/05/20 09:53:52;;;;;;;2.03;1.60;;;20.40;43.50;;;;;;4996445;28;20232;-73
2023/05/20 09:56:20;;;;;;;1.53;1.43;;;20.40;43.50;;;;;;4998217;28;20483;-73
2023/05/20 09:58:48;;;;;;;2.37;1.63;;;20.40;43.50;;;;;;5013323;28;21048;-77
2023/05/20 10:01:14;;;;;;;1.73;1.63;;;20.40;43.50;;;;;;5016620;28;20479;-75
2023/05/20 10:03:39;;;;;;;1.67;1.50;;;20.40;43.50;;;;;;5010243;28;20538;-75
2023/05/20 10:06:36;;;;;;;1.70;1.60;;;20.40;43.50;;;;;;5012735;28;20223;-74
2023/05/20 10:09:24;;;;;;;2.17;1.57;;;20.40;43.50;;;;;;5007472;28;20235;-75
2023/05/20 10:12:02;;;;;;;1.70;1.60;;;20.40;43.50;;;;;;5007395;28;20768;-75
2023/05/20 10:14:39;;;;;;;1.60;1.50;;;20.40;43.50;;;;;;5014227;28;20464;-75
2023/05/20 10:17:16;;;;;;;1.50;1.40;;;20.40;43.50;;;;;;4995276;28;20553;-75
2023/05/20 10:19:42;;;;;;;1.70;1.60;;;20.40;43.50;;;;;;4998447;28;20484;-75
2023/05/20 10:22:09;;;;;;;2.60;1.80;;;20.40;43.50;;;;;;5000749;28;20431;-75
2023/05/20 10:24:36;;;;;;;1.50;1.40;;;20.40;43.60;;;;;;4999386;28;20223;-75
2023/05/20 10:27:06;;;;;;;1.70;1.60;;;20.40;43.50;;;;;;5003931;28;21500;-75
2023/05/20 10:29:45;;;;;;;2.00;1.90;;;20.40;43.50;;;;;;5015077;28;20478;-75
2023/05/20 10:32:22;;;;;;;1.60;1.50;;;20.50;43.60;;;;;;4991895;28;20443;-75
2023/05/20 10:34:49;;;;;;;2.17;1.70;;;20.50;43.70;;;;;;5010763;28;20446;-75
2023/05/20 10:37:29;;;;;;;1.67;1.57;;;20.50;43.60;;;;;;5000702;28;20435;-76
2023/05/20 10:40:11;;;;;;;1.70;1.60;;;20.40;43.50;;;;;;4997861;28;20450;-76
2023/05/20 10:42:37;;;;;;;3.23;1.83;;;20.40;43.50;;;;;;5008671;28;20918;-75
2023/05/20 10:45:03;;;;;;;2.00;1.90;;;20.50;43.60;;;;;;5007920;28;20482;-76
2023/05/20 10:47:30;;;;;;;1.90;1.80;;;20.50;43.60;;;;;;5010710;28;20450;-75
2023/05/20 10:49:57;;;;;;;1.53;1.43;;;20.50;43.60;;;;;;5017126;28;21097;-75
2023/05/20 10:52:23;;;;;;;1.80;1.70;;;20.50;43.60;;;;;;4996830;28;20464;-74
2023/05/20 10:54:58;;;;;;;2.33;2.13;;;20.50;43.60;;;;;;5006808;28;20482;-75
2023/05/20 10:57:26;;;;;;;1.80;1.70;;;20.50;43.60;;;;;;5008553;28;20454;-74
2023/05/20 10:59:52;;;;;;;1.97;1.87;;;20.50;43.50;;;;;;5002800;28;20443;-75
2023/05/20 11:02:19;;;;;;;2.07;1.87;;;20.50;43.60;;;;;;5009376;28;20471;-75
2023/05/20 11:04:48;;;;;;;1.77;1.67;;;20.50;43.60;;;;;;5009430;28;21178;-75
2023/05/20 11:07:24;;;;;;;1.90;1.80;;;20.50;43.60;;;;;;4992886;28;20469;-75
2023/05/20 11:09:50;;;;;;;2.77;2.30;;;20.50;43.50;;;;;;4997429;28;21188;-75
2023/05/20 11:12:15;;;;;;;1.83;1.73;;;20.50;43.60;;;;;;5011811;28;20452;-75
2023/05/20 11:14:41;;;;;;;2.50;2.30;;;20.50;43.60;;;;;;4998061;28;20218;-75
2023/05/20 11:17:06;;;;;;;2.00;1.90;;;20.50;44.30;;;;;;5010379;28;20222;-76
2023/05/20 11:19:32;;;;;;;1.70;1.60;;;20.50;43.50;;;;;;5010969;28;20222;-76
2023/05/20 11:21:57;;;;;;;1.67;1.57;;;20.50;43.50;;;;;;5013254;28;20226;-75
2023/05/20 11:24:27;;;;;;;1.80;1.70;;;20.50;43.50;;;;;;5012164;28;20269;-76
2023/05/20 11:26:54;;;;;;;2.17;2.00;;;20.50;43.60;;;;;;5013847;28;20737;-75
2023/05/20 11:29:21;;;;;;;4.63;1.83;;;20.50;43.60;;;;;;5010691;28;20516;-74
2023/05/20 11:31:50;;;;;;;1.70;1.60;;;20.50;43.50;;;;;;5017220;28;20454;-76
2023/05/20 11:34:19;;;;;;;2.30;2.20;;;20.50;43.60;;;;;;5012012;28;20527;-76
2023/05/20 11:36:44;;;;;;;2.67;1.97;;;20.50;43.60;;;;;;5016707;28;20549;-75
2023/05/20 11:39:13;;;;;;;2.30;2.20;;;20.50;43.60;;;;;;5009927;28;20533;-76
2023/05/20 11:41:41;;;;;;;5.80;2.50;;;20.50;43.60;;;;;;4996786;28;20384;-76
2023/05/20 11:44:13;;;;;;;2.00;1.90;;;20.50;43.60;;;;;;5010984;28;20450;-76
2023/05/20 11:46:43;;;;;;;2.70;2.50;;;20.50;43.60;;;;;;5015531;28;20485;-76
2023/05/20 11:49:09;;;;;;;2.93;2.73;;;20.50;43.60;;;;;;5011311;28;20879;-75
2023/05/20 11:51:36;;;;;;;2.40;2.30;;;20.50;43.60;;;;;;5012905;28;20479;-75
2023/05/20 11:54:03;;;;;;;2.33;2.13;;;20.50;43.60;;;;;;5012586;28;20480;-75
2023/05/20 11:56:33;;;;;;;2.93;2.20;;;20.50;43.60;;;;;;4992961;28;20463;-75
2023/05/20 11:59:00;;;;;;;2.63;2.53;;;20.50;43.60;;;;;;5008564;28;21042;-75
2023/05/20 12:01:28;;;;;;;2.17;2.07;;;20.50;43.50;;;;;;5009911;28;20456;-75
2023/05/20 12:03:54;;;;;;;2.40;2.20;;;20.50;43.60;;;;;;5010056;28;20544;-74
2023/05/20 12:06:20;;;;;;;2.53;2.33;;;20.50;43.50;;;;;;4990543;28;21154;-74
2023/05/20 12:08:46;;;;;;;3.27;2.60;;;20.40;43.30;;;;;;5005395;28;20253;-74
2023/05/20 12:11:12;;;;;;;2.40;2.20;;;20.50;43.50;;;;;;5010184;28;20825;-74
2023/05/20 12:13:39;;;;;;;3.63;2.60;;;20.50;43.50;;;;;;5007965;28;20336;-74
2023/05/20 12:16:05;;;;;;;2.10;2.00;;;20.50;43.40;;;;;;4999823;28;20472;-74
2023/05/20 12:18:31;;;;;;;2.50;2.30;;;20.50;43.40;;;;;;5009283;28;20527;-74
2023/05/20 12:20:57;;;;;;;2.67;2.47;;;20.50;43.40;;;;;;5012710;28;21035;-74
2023/05/20 12:23:23;;;;;;;3.10;2.90;;;20.50;43.40;;;;;;5010550;28;20479;-74
2023/05/20 12:25:49;;;;;;;2.33;2.23;;;20.50;43.30;;;;;;5011711;28;20461;-74
2023/05/20 12:28:16;;;;;;;2.20;2.00;;;20.50;43.30;;;;;;4993161;28;20242;-74
2023/05/20 12:30:42;;;;;;;2.37;2.27;;;20.50;43.40;;;;;;4991444;28;20258;-74
2023/05/20 12:33:08;;;;;;;2.93;2.73;;;20.50;43.30;;;;;;4993079;28;20521;-72
2023/05/20 12:35:38;;;;;;;10.00;2.97;;;20.40;43.20;;;;;;4991964;28;20468;-75
2023/05/20 12:38:05;;;;;;;3.33;3.10;;;20.50;43.20;;;;;;5014022;28;20608;-77
2023/05/20 12:40:31;;;;;;;2.53;2.43;;;20.50;43.10;;;;;;5019783;28;21028;-71
2023/05/20 12:42:57;;;;;;;2.60;2.40;;;20.50;43.00;;;;;;5015668;28;20428;-74
2023/05/20 12:45:23;;;;;;;2.50;2.30;;;20.50;43.00;;;;;;4994691;28;20228;-74